Main page
METAR-TAF:

METAR-TAF

Airports :

Athens International Airport

Athens, Greece

latitude: 37-56N, longitude: 023-56E, elevation: 94 m

Current weather observation

The report was made 29 minutes ago, at 23:50 UTC
Wind 3 kt from the West
Temperature 4°C
Humidity 81%
Pressure 1025 hPa
Visibility 10 km or more
Few clouds at a height of 2500 ft

METAR: LGAV 102350Z 26003KT 9999 FEW025 04/01 Q1025 NOSIG

Time: 03:19 (00:19 UTC)

Forecast

The report was made 1 hour and 19 minutes ago, at 23:00 UTC
Forecast valid from 11 at 00 UTC to 11 at 24 UTC
Wind 5 kt from variable directions
Visibility 10 km or more
Few clouds at a height of 2500 ft
Becoming
from 11 at 07 UTC to 11 at 09 UTC
Wind 10 kt from the North/Northeast

TAF: LGAV 102300Z 1100/1124 VRB05KT 9999 FEW025 BECMG 1107/1109 03010KT

Weather observations and forecasts of more than 4000 airports (METAR and TAF reports).

The available stations are represented by yellow and red dots on the map.

Hover mouse over dot to see the name of the station.

Then click to see weather observations and forecasts.

To change the map : click on the green buttons with a black cross to zoom in, on the green button with a dash to zoom out, or on the green arrows for adjacent maps.


METAR-TAF: